createdAt,value
2023-05-14T00:01:00.188Z,15.97
2023-05-14T00:02:02.202Z,15.97
2023-05-14T00:03:04.538Z,15.94
2023-05-14T00:04:06.520Z,15.90
2023-05-14T00:05:10.064Z,15.92
2023-05-14T00:06:12.022Z,15.90
2023-05-14T00:07:13.868Z,15.85
2023-05-14T00:08:15.696Z,15.85
2023-05-14T00:09:17.477Z,15.84
2023-05-14T00:10:21.884Z,15.86
2023-05-14T00:11:24.197Z,15.85
2023-05-14T00:12:29.997Z,15.86
2023-05-14T00:13:31.750Z,15.84
2023-05-14T00:14:33.634Z,15.83
2023-05-14T00:15:35.434Z,15.86
2023-05-14T00:16:37.273Z,15.86
2023-05-14T00:17:39.146Z,15.87
2023-05-14T00:18:41.033Z,15.88
2023-05-14T00:19:42.887Z,15.89
2023-05-14T00:20:44.665Z,15.88
2023-05-14T00:21:48.535Z,15.86
2023-05-14T00:22:50.374Z,15.85
2023-05-14T00:23:52.121Z,15.85
2023-05-14T00:24:53.868Z,15.82
2023-05-14T00:25:55.599Z,15.78
2023-05-14T00:26:57.317Z,15.77
2023-05-14T00:27:59.018Z,15.75
2023-05-14T00:29:00.866Z,15.73
2023-05-14T00:30:05.634Z,15.71
2023-05-14T00:31:07.562Z,15.68
2023-05-14T00:32:09.320Z,15.68
2023-05-14T00:33:11.109Z,15.66
2023-05-14T00:34:12.934Z,15.64
2023-05-14T00:35:14.689Z,15.62
2023-05-14T00:36:16.512Z,15.60
2023-05-14T00:37:18.270Z,15.56
2023-05-14T00:38:20.030Z,15.55
2023-05-14T00:39:21.836Z,15.55
2023-05-14T00:40:28.271Z,15.54
2023-05-14T00:41:30.007Z,15.53
2023-05-14T00:42:31.775Z,15.52
2023-05-14T00:43:33.531Z,15.49
2023-05-14T00:44:35.997Z,15.49
2023-05-14T00:45:39.115Z,15.47
2023-05-14T00:46:41.285Z,15.43
2023-05-14T00:47:44.142Z,15.41
2023-05-14T00:48:46.401Z,15.39
2023-05-14T00:49:48.350Z,15.35
2023-05-14T00:50:51.898Z,15.35
2023-05-14T00:51:54.154Z,15.32
2023-05-14T00:52:56.009Z,15.29
2023-05-14T00:53:57.917Z,15.27
2023-05-14T00:55:03.122Z,15.24
2023-05-14T00:56:05.999Z,15.21
2023-05-14T00:57:08.507Z,15.19
2023-05-14T00:58:13.267Z,15.15
2023-05-14T00:59:14.999Z,15.15
2023-05-14T01:00:17.514Z,15.14
2023-05-14T01:01:19.353Z,15.11
2023-05-14T01:02:21.306Z,15.09
2023-05-14T01:03:23.255Z,15.08
2023-05-14T01:04:25.361Z,15.06
2023-05-14T01:05:55.589Z,15.05
2023-05-14T01:07:46.314Z,14.97
2023-05-14T01:09:20.172Z,14.95
2023-05-14T01:10:37.217Z,14.90
2023-05-14T01:12:32.102Z,14.89
2023-05-14T01:14:19.525Z,14.85
2023-05-14T01:15:33.380Z,14.83
2023-05-14T01:16:38.991Z,14.84
2023-05-14T01:17:59.085Z,14.85
2023-05-14T01:19:02.726Z,14.85
2023-05-14T01:20:05.905Z,14.83
2023-05-14T01:21:44.592Z,14.82
2023-05-14T01:22:46.362Z,14.82
2023-05-14T01:23:48.138Z,14.82
2023-05-14T01:24:49.894Z,14.83
2023-05-14T01:25:51.668Z,14.82
2023-05-14T01:27:16.062Z,14.82
2023-05-14T01:28:20.450Z,14.80
2023-05-14T01:29:26.099Z,14.77
2023-05-14T01:30:33.448Z,14.74
2023-05-14T01:31:40.580Z,14.71
2023-05-14T01:32:51.565Z,14.67
2023-05-14T01:33:58.633Z,14.63
2023-05-14T01:35:02.604Z,14.61
2023-05-14T01:36:05.692Z,14.56
2023-05-14T01:37:10.894Z,14.52
2023-05-14T01:38:17.956Z,14.46
2023-05-14T01:39:21.226Z,14.49
2023-05-14T01:40:24.738Z,14.46
2023-05-14T01:41:27.641Z,14.47
2023-05-14T01:42:29.923Z,14.48
2023-05-14T01:43:32.207Z,14.45
2023-05-14T01:44:34.519Z,14.44
2023-05-14T01:45:37.224Z,14.41
2023-05-14T01:46:39.291Z,14.40
2023-05-14T01:47:41.127Z,14.40
2023-05-14T01:48:42.924Z,14.38
2023-05-14T01:49:44.695Z,14.39
2023-05-14T01:50:46.496Z,14.38
2023-05-14T01:51:48.252Z,14.39
2023-05-14T01:52:51.188Z,14.39
2023-05-14T01:53:53.104Z,14.38
2023-05-14T01:54:54.827Z,14.36
2023-05-14T01:55:56.577Z,14.38
2023-05-14T01:56:58.291Z,14.37
2023-05-14T01:58:00.013Z,14.38
2023-05-14T01:59:01.719Z,14.39
2023-05-14T02:00:04.310Z,14.40
2023-05-14T02:01:06.141Z,14.38
2023-05-14T02:02:08.061Z,14.37
2023-05-14T02:03:09.811Z,14.35
2023-05-14T02:04:11.612Z,14.33
2023-05-14T02:05:13.881Z,14.33
2023-05-14T02:06:15.707Z,14.30
2023-05-14T02:07:17.486Z,14.28
2023-05-14T02:08:19.245Z,14.27
2023-05-14T02:09:21.128Z,14.27
2023-05-14T02:10:23.103Z,14.25
2023-05-14T02:11:24.959Z,14.23
2023-05-14T02:12:26.712Z,14.22
2023-05-14T02:13:28.442Z,14.19
2023-05-14T02:14:30.254Z,14.19
2023-05-14T02:15:31.999Z,14.18
2023-05-14T02:16:33.884Z,14.17
2023-05-14T02:17:35.796Z,14.17
2023-05-14T02:18:37.578Z,14.18
2023-05-14T02:19:39.308Z,14.18
2023-05-14T02:20:41.019Z,14.19
2023-05-14T02:21:42.754Z,14.20
2023-05-14T02:22:46.077Z,14.20
2023-05-14T02:23:49.415Z,14.20
2023-05-14T02:24:51.400Z,14.20
2023-05-14T02:25:53.178Z,14.20
2023-05-14T02:26:55.030Z,14.22
2023-05-14T02:27:56.758Z,14.20
2023-05-14T02:28:58.578Z,14.24
2023-05-14T02:30:01.092Z,14.22
2023-05-14T02:31:02.945Z,14.24
2023-05-14T02:32:05.627Z,14.25
2023-05-14T02:33:07.554Z,14.25
2023-05-14T02:34:10.383Z,14.28
2023-05-14T02:35:12.145Z,14.32
2023-05-14T02:36:13.986Z,14.38
2023-05-14T02:37:15.952Z,14.41
2023-05-14T02:38:17.828Z,14.44
2023-05-14T02:39:19.565Z,14.48
2023-05-14T02:40:21.525Z,14.47
2023-05-14T02:41:23.366Z,14.49
2023-05-14T02:42:25.108Z,14.50
2023-05-14T02:43:26.922Z,14.51
2023-05-14T02:44:28.699Z,14.44
2023-05-14T02:45:30.494Z,14.48
2023-05-14T02:46:32.804Z,14.46
2023-05-14T02:47:37.526Z,14.45
2023-05-14T02:48:39.809Z,14.45
2023-05-14T02:49:41.595Z,14.45
2023-05-14T02:50:43.358Z,14.44
2023-05-14T02:51:45.169Z,14.44
2023-05-14T02:52:46.991Z,14.45
2023-05-14T02:53:49.247Z,14.45
2023-05-14T02:54:50.975Z,14.44
2023-05-14T02:55:52.736Z,14.45
2023-05-14T02:56:54.520Z,14.43
2023-05-14T02:57:56.778Z,14.45
2023-05-14T02:58:58.553Z,14.46
2023-05-14T03:00:00.650Z,14.46
2023-05-14T03:01:02.946Z,14.48
2023-05-14T03:02:05.562Z,14.51
2023-05-14T03:03:07.717Z,14.50
2023-05-14T03:04:10.073Z,14.49
2023-05-14T03:05:11.817Z,14.52
2023-05-14T03:06:13.546Z,14.52
2023-05-14T03:07:15.276Z,14.55
2023-05-14T03:08:16.987Z,14.55
2023-05-14T03:09:18.728Z,14.54
2023-05-14T03:10:20.845Z,14.55
2023-05-14T03:11:22.826Z,14.54
2023-05-14T03:12:24.634Z,14.54
2023-05-14T03:13:26.483Z,14.54
2023-05-14T03:14:28.273Z,14.53
2023-05-14T03:15:30.452Z,14.53
2023-05-14T03:16:32.236Z,14.53
2023-05-14T03:17:34.093Z,14.52
2023-05-14T03:18:36.627Z,14.53
2023-05-14T03:19:38.515Z,14.53
2023-05-14T03:20:40.873Z,14.53
2023-05-14T03:21:42.946Z,14.53
2023-05-14T03:22:44.858Z,14.54
2023-05-14T03:23:46.611Z,14.54
2023-05-14T03:24:48.370Z,14.55
2023-05-14T03:25:50.147Z,14.55
2023-05-14T03:26:51.911Z,14.56
2023-05-14T03:27:53.663Z,14.57
2023-05-14T03:28:55.550Z,14.57
2023-05-14T03:29:57.250Z,14.57
2023-05-14T03:30:59.138Z,14.56
2023-05-14T03:32:01.167Z,14.58
2023-05-14T03:33:03.133Z,14.59
2023-05-14T03:34:04.913Z,14.60
2023-05-14T03:35:07.920Z,14.62
2023-05-14T03:36:09.890Z,14.61
2023-05-14T03:37:11.797Z,14.65
2023-05-14T03:38:13.581Z,14.64
2023-05-14T03:39:19.584Z,14.67
2023-05-14T03:40:21.842Z,14.68
2023-05-14T03:41:23.748Z,14.68
2023-05-14T03:42:25.571Z,14.68
2023-05-14T03:43:27.392Z,14.70
2023-05-14T03:44:29.169Z,14.71
2023-05-14T03:45:32.196Z,14.71
2023-05-14T03:46:33.976Z,14.73
2023-05-14T03:47:35.785Z,14.75
2023-05-14T03:48:37.586Z,14.75
2023-05-14T03:49:39.376Z,14.75
2023-05-14T03:50:41.320Z,14.78
2023-05-14T03:51:43.257Z,14.79
2023-05-14T03:52:45.828Z,14.79
2023-05-14T03:53:47.754Z,14.80
2023-05-14T03:54:49.591Z,14.82
2023-05-14T03:55:51.436Z,14.83
2023-05-14T03:56:53.206Z,14.84
2023-05-14T03:57:54.935Z,14.87
2023-05-14T03:58:56.650Z,14.87
2023-05-14T03:59:58.596Z,14.88
2023-05-14T04:01:00.614Z,14.87
2023-05-14T04:02:02.434Z,14.86
2023-05-14T04:03:04.412Z,14.86
2023-05-14T04:04:06.682Z,14.84
2023-05-14T04:05:09.173Z,14.83
2023-05-14T04:06:10.947Z,14.82
2023-05-14T04:07:12.702Z,14.79
2023-05-14T04:08:14.446Z,14.77
2023-05-14T04:09:16.297Z,14.77
2023-05-14T04:10:18.369Z,14.75
2023-05-14T04:11:21.293Z,14.74
2023-05-14T04:12:23.102Z,14.72
2023-05-14T04:13:24.962Z,14.73
2023-05-14T04:14:26.715Z,14.73
2023-05-14T04:15:28.512Z,14.72
2023-05-14T04:16:30.330Z,14.71
2023-05-14T04:17:32.986Z,14.66
2023-05-14T04:18:35.756Z,14.69
2023-05-14T04:19:37.568Z,14.66
2023-05-14T04:20:39.344Z,14.67
2023-05-14T04:21:41.201Z,14.69
2023-05-14T04:22:42.944Z,14.67
2023-05-14T04:23:44.786Z,14.68
2023-05-14T04:24:46.525Z,14.68
2023-05-14T04:25:48.292Z,14.67
2023-05-14T04:26:50.069Z,14.65
2023-05-14T04:27:51.847Z,14.64
2023-05-14T04:28:53.583Z,14.66
2023-05-14T04:29:55.299Z,14.66
2023-05-14T04:30:57.072Z,14.66
2023-05-14T04:31:58.904Z,14.67
2023-05-14T04:33:00.755Z,14.68
2023-05-14T04:34:02.543Z,14.68
2023-05-14T04:35:05.924Z,14.67
2023-05-14T04:36:08.259Z,14.67
2023-05-14T04:37:10.084Z,14.67
2023-05-14T04:38:13.990Z,14.67
2023-05-14T04:39:15.740Z,14.67
2023-05-14T04:40:17.719Z,14.66
2023-05-14T04:41:19.467Z,14.65
2023-05-14T04:42:21.415Z,14.65
2023-05-14T04:43:23.153Z,14.63
2023-05-14T04:44:24.895Z,14.62
2023-05-14T04:45:26.683Z,14.63
2023-05-14T04:46:28.970Z,14.65
2023-05-14T04:47:31.739Z,14.66
2023-05-14T04:48:33.463Z,14.66
2023-05-14T04:49:35.270Z,14.67
2023-05-14T04:50:37.026Z,14.70
2023-05-14T04:51:38.815Z,14.71
2023-05-14T04:52:40.664Z,14.73
2023-05-14T04:53:42.435Z,14.76
2023-05-14T04:54:44.306Z,14.79
2023-05-14T04:55:46.124Z,14.82
2023-05-14T04:56:47.890Z,14.83
2023-05-14T04:57:49.628Z,14.88
2023-05-14T04:58:51.339Z,14.91
2023-05-14T04:59:53.101Z,14.92
2023-05-14T05:00:54.937Z,14.96
2023-05-14T05:01:56.853Z,15.00
2023-05-14T05:02:58.706Z,15.02
2023-05-14T05:04:00.812Z,15.07
2023-05-14T05:05:04.181Z,15.11
2023-05-14T05:06:06.711Z,15.15
2023-05-14T05:07:08.569Z,15.20
2023-05-14T05:08:11.350Z,15.23
2023-05-14T05:09:14.160Z,15.26
2023-05-14T05:10:16.018Z,15.29
2023-05-14T05:11:17.900Z,15.32
2023-05-14T05:12:19.675Z,15.35
2023-05-14T05:13:21.477Z,15.40
2023-05-14T05:14:23.304Z,15.43
2023-05-14T05:15:26.573Z,15.44
2023-05-14T05:16:28.692Z,15.47
2023-05-14T05:17:30.888Z,15.51
2023-05-14T05:18:32.812Z,15.53
2023-05-14T05:19:43.272Z,15.55
2023-05-14T05:20:46.180Z,15.61
2023-05-14T05:21:48.011Z,15.65
2023-05-14T05:22:49.718Z,15.65
2023-05-14T05:23:51.489Z,15.68
2023-05-14T05:24:53.381Z,15.70
2023-05-14T05:25:55.253Z,15.73
2023-05-14T05:26:56.989Z,15.74
2023-05-14T05:27:58.698Z,15.76
2023-05-14T05:29:00.815Z,15.77
2023-05-14T05:30:03.892Z,15.79
2023-05-14T05:31:05.765Z,15.79
2023-05-14T05:32:08.175Z,15.80
2023-05-14T05:33:09.975Z,15.81
2023-05-14T05:34:11.879Z,15.81
2023-05-14T05:35:13.662Z,15.84
2023-05-14T05:36:15.486Z,15.84
2023-05-14T05:37:17.422Z,15.82
2023-05-14T05:38:19.202Z,15.85
2023-05-14T05:39:20.996Z,15.87
2023-05-14T05:40:22.956Z,15.89
2023-05-14T05:41:25.001Z,15.91
2023-05-14T05:42:26.700Z,15.93
2023-05-14T05:43:28.565Z,15.98
2023-05-14T05:44:30.657Z,15.98
2023-05-14T05:45:32.559Z,15.98
2023-05-14T05:46:34.405Z,15.99
2023-05-14T05:47:36.290Z,16.01
2023-05-14T05:48:38.018Z,16.03
2023-05-14T05:49:39.771Z,16.05
2023-05-14T05:50:41.527Z,16.06
2023-05-14T05:51:43.250Z,16.08
2023-05-14T05:52:45.250Z,16.15
2023-05-14T05:53:47.021Z,16.26
2023-05-14T05:54:48.850Z,16.35
2023-05-14T05:55:53.606Z,16.40
2023-05-14T05:56:55.452Z,16.41
2023-05-14T05:57:57.159Z,16.47
2023-05-14T05:58:58.908Z,16.52
2023-05-14T06:00:01.023Z,16.54
2023-05-14T06:01:02.894Z,16.55
2023-05-14T06:02:05.080Z,16.58
2023-05-14T06:03:07.157Z,16.57
2023-05-14T06:04:09.957Z,16.55
2023-05-14T06:05:12.200Z,16.50
2023-05-14T06:06:15.469Z,16.44
2023-05-14T06:07:17.183Z,16.34
2023-05-14T06:08:19.505Z,16.26
2023-05-14T06:09:21.356Z,16.22
2023-05-14T06:10:23.291Z,16.22
2023-05-14T06:11:25.325Z,16.20
2023-05-14T06:12:27.215Z,16.22
2023-05-14T06:13:29.027Z,16.29
2023-05-14T06:14:30.789Z,16.36
2023-05-14T06:15:32.581Z,16.49
2023-05-14T06:16:34.411Z,16.66
2023-05-14T06:17:36.216Z,16.78
2023-05-14T06:18:37.984Z,16.89
2023-05-14T06:19:39.827Z,16.96
2023-05-14T06:20:41.665Z,17.05
2023-05-14T06:21:43.414Z,17.08
2023-05-14T06:22:45.221Z,17.12
2023-05-14T06:23:47.199Z,17.18
2023-05-14T06:24:49.065Z,17.27
2023-05-14T06:25:51.073Z,17.36
2023-05-14T06:26:52.795Z,17.40
2023-05-14T06:27:54.530Z,17.43
2023-05-14T06:28:56.476Z,17.47
2023-05-14T06:29:58.295Z,17.50
2023-05-14T06:31:00.152Z,17.47
2023-05-14T06:32:04.357Z,17.46
2023-05-14T06:33:06.178Z,17.36
2023-05-14T06:34:08.082Z,17.27
2023-05-14T06:35:10.458Z,17.19
2023-05-14T06:36:12.241Z,17.11
2023-05-14T06:37:14.009Z,17.03
2023-05-14T06:38:15.733Z,16.95
2023-05-14T06:39:17.464Z,16.89
2023-05-14T06:40:19.485Z,16.82
2023-05-14T06:41:21.265Z,16.77
2023-05-14T06:42:23.014Z,16.79
2023-05-14T06:43:24.848Z,16.77
2023-05-14T06:44:27.738Z,16.77
2023-05-14T06:45:32.376Z,16.75
2023-05-14T06:46:34.935Z,16.73
2023-05-14T06:47:36.693Z,16.73
2023-05-14T06:48:38.427Z,16.70
2023-05-14T06:49:40.274Z,16.67
2023-05-14T06:50:42.005Z,16.62
2023-05-14T06:51:43.785Z,16.59
2023-05-14T06:52:45.622Z,16.56
2023-05-14T06:53:48.808Z,16.55
2023-05-14T06:54:50.631Z,16.58
2023-05-14T06:55:52.377Z,16.62
2023-05-14T06:56:54.752Z,16.63
2023-05-14T06:57:56.512Z,16.66
2023-05-14T06:58:58.223Z,16.67
2023-05-14T07:00:00.092Z,16.67
2023-05-14T07:01:01.958Z,16.67
2023-05-14T07:02:03.735Z,16.67
2023-05-14T07:03:05.935Z,16.68
2023-05-14T07:04:07.912Z,16.69
2023-05-14T07:05:11.240Z,16.71
2023-05-14T07:06:13.819Z,16.72
2023-05-14T07:07:18.200Z,16.75
2023-05-14T07:08:19.906Z,16.77
2023-05-14T07:09:21.993Z,16.78
2023-05-14T07:10:24.990Z,16.78
2023-05-14T07:11:26.844Z,16.80
2023-05-14T07:12:28.601Z,16.81
2023-05-14T07:13:30.345Z,16.80
2023-05-14T07:14:32.118Z,16.81
2023-05-14T07:15:34.254Z,16.82
2023-05-14T07:16:36.662Z,16.86
2023-05-14T07:17:38.406Z,16.90
2023-05-14T07:18:40.347Z,16.94
2023-05-14T07:19:42.154Z,16.97
2023-05-14T07:20:43.904Z,16.96
2023-05-14T07:21:45.619Z,16.98
2023-05-14T07:22:47.822Z,16.97
2023-05-14T07:23:49.566Z,16.94
2023-05-14T07:24:51.347Z,16.93
2023-05-14T07:25:53.139Z,16.92
2023-05-14T07:26:57.128Z,16.93
2023-05-14T07:27:58.883Z,16.98
2023-05-14T07:29:00.697Z,17.01
2023-05-14T07:30:02.943Z,17.05
2023-05-14T07:31:08.901Z,17.07
2023-05-14T07:32:11.798Z,17.12
2023-05-14T07:33:15.257Z,17.15
2023-05-14T07:34:17.004Z,17.17
2023-05-14T07:35:18.738Z,17.21
2023-05-14T07:36:20.578Z,17.24
2023-05-14T07:37:24.199Z,17.22
2023-05-14T07:38:26.092Z,17.15
2023-05-14T07:39:27.918Z,17.13
2023-05-14T07:40:29.634Z,17.13
2023-05-14T07:41:31.356Z,17.13
2023-05-14T07:42:36.409Z,17.16
2023-05-14T07:43:40.422Z,17.18
2023-05-14T07:44:42.178Z,17.24
2023-05-14T07:45:45.118Z,17.32
2023-05-14T07:46:47.647Z,17.39
2023-05-14T07:47:52.511Z,17.49
2023-05-14T07:48:54.547Z,17.57
2023-05-14T07:49:57.593Z,17.67
2023-05-14T07:50:59.919Z,17.81
2023-05-14T07:52:01.695Z,17.95
2023-05-14T07:53:03.614Z,18.07
2023-05-14T07:54:05.637Z,18.19
2023-05-14T07:55:08.401Z,18.33
2023-05-14T07:56:10.455Z,18.45
2023-05-14T07:57:12.226Z,18.58
2023-05-14T07:58:14.121Z,18.70
2023-05-14T07:59:15.876Z,18.80
2023-05-14T08:00:18.013Z,18.93
2023-05-14T08:01:19.782Z,19.04
2023-05-14T08:02:21.660Z,19.17
2023-05-14T08:03:23.585Z,19.22
2023-05-14T08:04:26.339Z,19.14
2023-05-14T08:05:28.125Z,19.05
2023-05-14T08:06:29.932Z,19.06
2023-05-14T08:07:31.703Z,19.12
2023-05-14T08:08:33.613Z,19.28
2023-05-14T08:09:35.596Z,19.51
2023-05-14T08:10:37.390Z,19.71
2023-05-14T08:11:39.281Z,19.89
2023-05-14T08:12:42.648Z,19.98
2023-05-14T08:13:44.410Z,19.99
2023-05-14T08:14:46.248Z,20.08
2023-05-14T08:15:48.075Z,20.14
2023-05-14T08:16:50.016Z,20.22
2023-05-14T08:17:51.903Z,20.24
2023-05-14T08:18:53.747Z,20.23
2023-05-14T08:19:55.617Z,20.22
2023-05-14T08:20:57.877Z,20.24
2023-05-14T08:21:59.661Z,20.24
2023-05-14T08:23:01.510Z,20.31
2023-05-14T08:24:03.582Z,20.42
2023-05-14T08:25:06.434Z,20.57
2023-05-14T08:26:08.567Z,20.60
2023-05-14T08:27:10.403Z,20.53
2023-05-14T08:28:12.195Z,20.44
2023-05-14T08:29:16.119Z,20.36
2023-05-14T08:30:18.415Z,20.36
2023-05-14T08:31:20.395Z,20.42
2023-05-14T08:32:24.027Z,20.35
2023-05-14T08:33:26.141Z,20.26
2023-05-14T08:34:28.628Z,20.11
2023-05-14T08:35:30.460Z,19.94
2023-05-14T08:36:32.810Z,19.80
2023-05-14T08:37:34.660Z,19.74
2023-05-14T08:38:36.412Z,19.75
2023-05-14T08:39:38.142Z,19.77
2023-05-14T08:40:40.227Z,19.72
2023-05-14T08:41:42.394Z,19.66
2023-05-14T08:42:45.044Z,19.60
2023-05-14T08:44:14.135Z,19.51
2023-05-14T08:45:33.720Z,19.49
2023-05-14T08:46:38.886Z,19.47
2023-05-14T08:47:40.765Z,19.54
2023-05-14T08:48:48.051Z,19.64
2023-05-14T08:50:04.513Z,19.86
2023-05-14T08:51:08.964Z,20.08
2023-05-14T08:52:12.308Z,20.30
2023-05-14T08:53:14.544Z,20.42
2023-05-14T08:54:17.857Z,20.53
2023-05-14T08:55:20.531Z,20.61
2023-05-14T08:56:24.305Z,20.62
2023-05-14T08:57:28.388Z,20.64
2023-05-14T08:58:30.419Z,20.73
2023-05-14T08:59:32.375Z,20.76
2023-05-14T09:00:34.393Z,20.70
2023-05-14T09:01:39.726Z,20.67
2023-05-14T09:02:44.356Z,20.64
2023-05-14T09:03:47.909Z,20.58
2023-05-14T09:04:56.714Z,20.58
2023-05-14T09:06:00.328Z,20.60
2023-05-14T09:07:03.981Z,20.59
2023-05-14T09:08:05.922Z,20.52
2023-05-14T09:09:07.880Z,20.49
2023-05-14T09:10:11.322Z,20.54
2023-05-14T09:11:13.183Z,20.66
2023-05-14T09:12:15.041Z,20.77
2023-05-14T09:13:16.813Z,20.85
2023-05-14T09:14:19.761Z,21.01
2023-05-14T09:15:21.887Z,21.24
2023-05-14T09:16:26.758Z,21.51
2023-05-14T09:17:28.755Z,21.84
2023-05-14T09:18:30.742Z,22.06
2023-05-14T09:19:32.895Z,22.30
2023-05-14T09:20:34.864Z,22.59
2023-05-14T09:21:37.405Z,22.86
2023-05-14T09:22:39.833Z,23.00
2023-05-14T09:23:45.324Z,23.09
2023-05-14T09:25:01.546Z,23.24
2023-05-14T09:26:06.293Z,23.45
2023-05-14T09:27:10.941Z,23.60
2023-05-14T09:28:12.784Z,23.53
2023-05-14T09:29:14.533Z,23.48
2023-05-14T09:30:16.496Z,23.49
2023-05-14T09:31:18.257Z,23.60
2023-05-14T09:32:20.545Z,23.84
2023-05-14T09:33:29.441Z,24.22
2023-05-14T09:34:37.972Z,24.61
2023-05-14T09:35:41.391Z,24.99
2023-05-14T09:36:43.148Z,25.37
2023-05-14T09:37:55.578Z,25.72
2023-05-14T09:38:57.893Z,26.03
2023-05-14T09:40:11.733Z,26.13
2023-05-14T09:41:13.526Z,26.06
2023-05-14T09:42:16.598Z,25.80
2023-05-14T09:43:18.416Z,25.63
2023-05-14T09:44:22.575Z,25.64
2023-05-14T09:45:24.339Z,25.81
2023-05-14T09:46:30.100Z,26.03
2023-05-14T09:47:32.799Z,26.33
2023-05-14T09:48:34.818Z,26.60
2023-05-14T09:49:36.603Z,26.85
2023-05-14T09:50:46.718Z,27.12
2023-05-14T09:51:51.953Z,27.36
2023-05-14T09:52:56.111Z,27.61
2023-05-14T09:53:57.859Z,27.76
2023-05-14T09:55:01.433Z,27.74
2023-05-14T09:56:03.424Z,27.71
2023-05-14T09:57:05.822Z,27.63
2023-05-14T09:58:07.532Z,27.48
2023-05-14T09:59:09.377Z,27.30
2023-05-14T10:00:12.863Z,27.07
2023-05-14T10:01:20.266Z,26.86
2023-05-14T10:02:30.011Z,26.64
2023-05-14T10:03:32.921Z,26.35
2023-05-14T10:04:37.159Z,26.08
2023-05-14T10:05:42.471Z,25.92
2023-05-14T10:06:53.043Z,25.76
2023-05-14T10:08:01.524Z,25.53
2023-05-14T10:09:10.045Z,25.28
2023-05-14T10:10:19.884Z,25.07
2023-05-14T10:11:28.306Z,24.85
2023-05-14T10:12:36.364Z,24.64
2023-05-14T10:13:49.972Z,24.26
2023-05-14T10:14:57.865Z,23.63
2023-05-14T10:16:16.564Z,23.00
2023-05-14T10:17:22.050Z,22.63
2023-05-14T10:18:25.192Z,22.41
2023-05-14T10:19:32.371Z,22.26
2023-05-14T10:20:36.647Z,22.16
2023-05-14T10:21:44.435Z,22.08
2023-05-14T10:22:46.675Z,22.02
2023-05-14T10:23:51.114Z,21.97
2023-05-14T10:24:54.963Z,21.92
2023-05-14T10:25:59.419Z,21.87
2023-05-14T10:27:02.735Z,21.81
2023-05-14T10:28:06.135Z,21.76
2023-05-14T10:29:11.259Z,21.68
2023-05-14T10:30:13.441Z,21.62
2023-05-14T10:31:15.690Z,21.53
2023-05-14T10:32:22.534Z,21.46
2023-05-14T10:33:24.244Z,21.39
2023-05-14T10:34:45.882Z,21.34
2023-05-14T10:36:04.460Z,21.26
2023-05-14T10:37:18.603Z,21.17
2023-05-14T10:38:27.254Z,21.11
2023-05-14T10:39:52.288Z,21.08
2023-05-14T10:41:06.175Z,21.05
2023-05-14T10:42:13.108Z,21.03
2023-05-14T10:43:17.582Z,21.03
2023-05-14T10:44:21.903Z,21.07
2023-05-14T10:45:23.827Z,21.10
2023-05-14T10:46:26.076Z,21.11
2023-05-14T10:47:32.891Z,21.15
2023-05-14T10:48:37.856Z,21.16
2023-05-14T10:49:43.364Z,21.15
2023-05-14T10:50:51.044Z,21.10
2023-05-14T10:51:54.217Z,21.03
2023-05-14T10:52:57.097Z,20.93
2023-05-14T10:54:01.612Z,20.79
2023-05-14T10:55:10.755Z,20.71
2023-05-14T10:56:14.801Z,20.66
2023-05-14T10:57:19.926Z,20.65
2023-05-14T10:58:22.435Z,20.62
2023-05-14T10:59:28.300Z,20.59
2023-05-14T11:00:35.330Z,20.54
2023-05-14T11:01:40.130Z,20.50
2023-05-14T11:02:44.903Z,20.51
2023-05-14T11:03:47.305Z,20.53
2023-05-14T11:05:19.332Z,20.54
2023-05-14T11:06:21.379Z,20.58
2023-05-14T11:07:31.099Z,20.61
2023-05-14T11:08:33.864Z,20.63
2023-05-14T11:09:37.640Z,20.64
2023-05-14T11:10:41.888Z,20.61
2023-05-14T11:11:43.968Z,20.58
2023-05-14T11:12:51.389Z,20.55
2023-05-14T11:13:54.075Z,20.52
2023-05-14T11:15:02.162Z,20.48
2023-05-14T11:16:18.991Z,20.42
2023-05-14T11:17:30.186Z,20.30
2023-05-14T11:18:38.450Z,20.26
2023-05-14T11:19:44.914Z,20.18
2023-05-14T11:20:46.875Z,20.14
2023-05-14T11:21:48.724Z,20.12
2023-05-14T11:22:53.535Z,20.09
2023-05-14T11:23:57.142Z,20.08
2023-05-14T11:24:58.905Z,20.06
2023-05-14T11:26:00.819Z,20.06
2023-05-14T11:27:02.600Z,20.04
2023-05-14T11:28:05.302Z,20.02
2023-05-14T11:29:07.131Z,19.99
2023-05-14T11:30:22.182Z,19.98
2023-05-14T11:31:25.343Z,19.96
2023-05-14T11:32:27.524Z,19.94
2023-05-14T11:33:29.663Z,19.91
2023-05-14T11:34:31.835Z,19.90
2023-05-14T11:35:33.597Z,19.93
2023-05-14T11:36:37.195Z,19.97
2023-05-14T11:37:39.131Z,19.98
2023-05-14T11:38:50.568Z,20.02
2023-05-14T11:39:55.692Z,20.07
2023-05-14T11:41:00.053Z,20.11
2023-05-14T11:42:16.754Z,20.14
2023-05-14T11:43:18.833Z,20.17
2023-05-14T11:44:20.706Z,20.16
2023-05-14T11:45:27.662Z,20.14
2023-05-14T11:46:30.928Z,20.13
2023-05-14T11:47:32.947Z,20.13
2023-05-14T11:48:35.189Z,20.14
2023-05-14T11:49:37.952Z,20.15
2023-05-14T11:50:40.445Z,20.15
2023-05-14T11:51:42.216Z,20.18
2023-05-14T11:52:43.995Z,20.19
2023-05-14T11:53:46.482Z,20.23
2023-05-14T11:54:51.597Z,20.23
2023-05-14T11:55:55.005Z,20.23
2023-05-14T11:56:59.537Z,20.23
2023-05-14T11:58:01.530Z,20.17
2023-05-14T11:59:03.345Z,20.17
2023-05-14T12:00:13.417Z,20.14
2023-05-14T12:01:15.816Z,20.12
2023-05-14T12:02:19.805Z,20.16
2023-05-14T12:03:25.995Z,20.18
2023-05-14T12:04:29.441Z,20.21
2023-05-14T12:05:31.282Z,20.23
2023-05-14T12:06:33.193Z,20.28
2023-05-14T12:07:35.873Z,20.32
2023-05-14T12:08:37.724Z,20.34
2023-05-14T12:09:49.506Z,20.31
2023-05-14T12:10:53.602Z,20.26
2023-05-14T12:11:55.336Z,20.22
2023-05-14T12:12:57.100Z,20.16
2023-05-14T12:14:09.952Z,20.20
2023-05-14T12:15:14.680Z,20.22
2023-05-14T12:16:17.758Z,20.24
2023-05-14T12:17:23.129Z,20.26
2023-05-14T12:18:28.617Z,20.29
2023-05-14T12:19:30.820Z,20.30
2023-05-14T12:20:32.604Z,20.31
2023-05-14T12:21:35.019Z,20.33
2023-05-14T12:22:37.276Z,20.33
2023-05-14T12:23:39.672Z,20.34
2023-05-14T12:24:43.582Z,20.36
2023-05-14T12:25:54.070Z,20.43
2023-05-14T12:26:57.397Z,20.47
2023-05-14T12:27:59.110Z,20.56
2023-05-14T12:29:03.451Z,20.64
2023-05-14T12:31:13.112Z,20.82
2023-05-14T12:32:14.869Z,20.91
2023-05-14T12:33:16.630Z,20.98
2023-05-14T12:34:18.455Z,21.06
2023-05-14T12:35:22.880Z,21.16
2023-05-14T12:36:25.229Z,21.23
2023-05-14T12:37:30.058Z,21.30
2023-05-14T12:38:32.994Z,21.40
2023-05-14T12:39:35.005Z,21.49
2023-05-14T12:40:38.754Z,21.61
2023-05-14T12:41:42.503Z,21.65
2023-05-14T12:42:44.234Z,21.65
2023-05-14T12:43:49.552Z,21.65
2023-05-14T12:44:51.295Z,21.67
2023-05-14T12:45:53.022Z,21.65
2023-05-14T12:46:55.151Z,21.62
2023-05-14T12:47:56.979Z,21.63
2023-05-14T12:48:58.842Z,21.61
2023-05-14T12:50:00.630Z,21.59
2023-05-14T12:51:02.426Z,21.57
2023-05-14T12:52:25.726Z,21.55
2023-05-14T12:53:27.388Z,21.53
2023-05-14T12:54:29.141Z,21.52
2023-05-14T12:55:31.149Z,21.50
2023-05-14T12:56:32.956Z,21.50
2023-05-14T12:57:35.434Z,21.46
2023-05-14T12:58:38.039Z,21.37
2023-05-14T12:59:39.799Z,21.32
2023-05-14T13:00:42.098Z,21.31
2023-05-14T13:01:43.913Z,21.27
2023-05-14T13:02:45.901Z,21.30
2023-05-14T13:03:47.779Z,21.30
2023-05-14T13:04:49.531Z,21.32
2023-05-14T13:05:53.362Z,21.32
2023-05-14T13:06:55.325Z,21.33
2023-05-14T13:08:02.205Z,21.36
2023-05-14T13:09:04.169Z,21.37
2023-05-14T13:10:07.129Z,21.39
2023-05-14T13:11:08.873Z,21.37
2023-05-14T13:12:10.683Z,21.30
2023-05-14T13:13:12.941Z,21.26
2023-05-14T13:14:14.754Z,21.23
2023-05-14T13:15:16.765Z,21.23
2023-05-14T13:16:18.651Z,21.24
2023-05-14T13:17:20.770Z,21.25
2023-05-14T13:18:22.628Z,21.26
2023-05-14T13:19:24.443Z,21.20
2023-05-14T13:20:27.557Z,21.11
2023-05-14T13:21:29.349Z,21.01
2023-05-14T13:22:31.122Z,20.92
2023-05-14T13:23:32.870Z,20.83
2023-05-14T13:24:35.502Z,20.77
2023-05-14T13:25:37.531Z,20.70
2023-05-14T13:26:39.330Z,20.63
2023-05-14T13:27:41.290Z,20.55
2023-05-14T13:28:43.306Z,20.48
2023-05-14T13:29:45.054Z,20.43
2023-05-14T13:31:10.430Z,20.40
2023-05-14T13:32:12.259Z,20.35
2023-05-14T13:33:14.181Z,20.31
2023-05-14T13:34:16.351Z,20.27
2023-05-14T13:35:18.232Z,20.27
2023-05-14T13:36:20.166Z,20.28
2023-05-14T13:37:22.080Z,20.26
2023-05-14T13:38:24.029Z,20.26
2023-05-14T13:39:27.216Z,20.27